Back to Top

Language: 

My Weather Underground Personal Weather Station Historical Data with Graphs...

Delerius Weather Station Historical Data
Daily Summary for October 5, 2017 Units:  Metric    English   Both
« Previous Day
Next Day »
Daily Weekly Monthly Yearly Custom
  High: Low: Average:
Temperature: 15.9 °C 9.1 °C 12.7 °C
Dew Point: 13.7 °C 6.6 °C 9 °C
Humidity: 92 % 57 % 79 %
Wind Speed: 35.4 km/h 8 km/h 20 km/h
Wind Gust: 69.2 km/h - -
Wind:- - WNW
Pressure: 1021.6 hPa 1002.9 hPa -
Precipitation: 0.51 mm    
Historical Graphs
 
 
Tabular Data for October 5, 2017
Time Temperature Dew Point Pressure Wind Wind Speed Wind Gust Humidity Rainfall Rate (Hourly) solar Conditions
00:04 13.4 °C 11.9 °C 1007.3 hPa WSW 20.9 km/h 37 km/h 91 % 0 mm 0 W/m2
00:09 13.4 °C 11.9 °C 1007 hPa WSW 22.5 km/h 40.2 km/h 91 % 0 mm 0 W/m2
00:14 13.6 °C 12 °C 1007 hPa WSW 24.1 km/h 40.2 km/h 90 % 0.25 mm 0 W/m2
00:19 13.6 °C 12 °C 1006.7 hPa WSW 24.1 km/h 40.2 km/h 90 % 0.25 mm 0 W/m2
00:24 13.5 °C 12.1 °C 1006.7 hPa WSW 25.7 km/h 46.7 km/h 91 % 0.25 mm 0 W/m2
00:29 13.6 °C 12 °C 1006.3 hPa WSW 29 km/h 46.7 km/h 90 % 0.25 mm 0 W/m2
00:34 13.6 °C 12 °C 1006.3 hPa WSW 27.4 km/h 46.7 km/h 90 % 0.25 mm 0 W/m2
00:39 13.6 °C 12.2 °C 1006.3 hPa WSW 25.7 km/h 46.7 km/h 91 % 0.25 mm 0 W/m2
00:44 13.7 °C 12.3 °C 1006.3 hPa WSW 27.4 km/h 53.1 km/h 91 % 0.25 mm 0 W/m2
00:49 13.7 °C 12.3 °C 1006 hPa WSW 27.4 km/h 53.1 km/h 91 % 0.25 mm 0 W/m2
00:54 13.7 °C 12.3 °C 1006 hPa WSW 27.4 km/h 48.3 km/h 91 % 0.25 mm 0 W/m2
00:59 13.8 °C 12.3 °C 1005.6 hPa WSW 25.7 km/h 45.1 km/h 91 % 0.25 mm 0 W/m2
01:04 13.8 °C 12.3 °C 1005.6 hPa WSW 24.1 km/h 45.1 km/h 91 % 0.25 mm 0 W/m2
01:09 13.8 °C 12.3 °C 1005.3 hPa WSW 25.7 km/h 48.3 km/h 91 % 0.25 mm 0 W/m2
01:14 13.9 °C 12.4 °C 1005.3 hPa WSW 29 km/h 48.3 km/h 91 % 0 mm 0 W/m2
01:20 13.9 °C 12.4 °C 1005.3 hPa WSW 25.7 km/h 45.1 km/h 91 % 0 mm 0 W/m2
01:25 14 °C 12.4 °C 1005.3 hPa WSW 27.4 km/h 49.9 km/h 90 % 0 mm 0 W/m2
01:30 14 °C 12.4 °C 1005.3 hPa WSW 25.7 km/h 49.9 km/h 90 % 0 mm 0 W/m2
01:35 14 °C 12.6 °C 1005.3 hPa WSW 25.7 km/h 45.1 km/h 91 % 0 mm 0 W/m2
01:40 14 °C 12.6 °C 1005.3 hPa WSW 29 km/h 46.7 km/h 91 % 0 mm 0 W/m2
01:45 14 °C 12.6 °C 1005 hPa WSW 25.7 km/h 46.7 km/h 91 % 0 mm 0 W/m2
01:50 14 °C 12.6 °C 1004.6 hPa WSW 24.1 km/h 40.2 km/h 91 % 0 mm 0 W/m2
01:55 14.1 °C 12.7 °C 1004.6 hPa WSW 25.7 km/h 43.5 km/h 91 % 0.25 mm 0 W/m2
02:00 14.1 °C 12.7 °C 1004.6 hPa WSW 25.7 km/h 43.5 km/h 91 % 0.25 mm 0 W/m2
02:05 14.1 °C 12.7 °C 1004.3 hPa WSW 25.7 km/h 41.8 km/h 91 % 0.25 mm 0 W/m2
02:10 14.2 °C 12.8 °C 1004.3 hPa WSW 25.7 km/h 46.7 km/h 91 % 0.25 mm 0 W/m2
02:15 14.3 °C 12.8 °C 1004.3 hPa WSW 29 km/h 48.3 km/h 91 % 0.25 mm 0 W/m2
02:20 14.4 °C 12.9 °C 1003.9 hPa WSW 29 km/h 48.3 km/h 91 % 0.25 mm 0 W/m2
02:25 14.4 °C 12.9 °C 1003.9 hPa WSW 27.4 km/h 48.3 km/h 91 % 0.25 mm 0 W/m2
02:30 14.5 °C 13.1 °C 1003.9 hPa WSW 27.4 km/h 48.3 km/h 91 % 0.25 mm 0 W/m2
02:40 14.6 °C 13 °C 1003.9 hPa WSW 29 km/h 48.3 km/h 90 % 0.25 mm 0 W/m2
02:45 14.6 °C 13 °C 1003.6 hPa WSW 29 km/h 48.3 km/h 90 % 0.25 mm 0 W/m2
02:50 14.6 °C 13.2 °C 1003.6 hPa WSW 27.4 km/h 46.7 km/h 91 % 0.25 mm 0 W/m2
02:55 14.7 °C 13.2 °C 1003.6 hPa WSW 29 km/h 48.3 km/h 91 % 0 mm 0 W/m2
03:00 14.7 °C 13.2 °C 1003.3 hPa West 30.6 km/h 48.3 km/h 91 % 0 mm 0 W/m2
03:05 14.7 °C 13.2 °C 1003.3 hPa West 32.2 km/h 46.7 km/h 91 % 0.25 mm 0 W/m2
03:10 14.7 °C 13.2 °C 1002.9 hPa West 30.6 km/h 49.9 km/h 91 % 0.25 mm 0 W/m2
03:15 14.7 °C 13.2 °C 1002.9 hPa West 30.6 km/h 49.9 km/h 91 % 0.25 mm 0 W/m2
03:20 14.7 °C 13.2 °C 1002.9 hPa West 29 km/h 48.3 km/h 91 % 0.25 mm 0 W/m2
03:25 14.6 °C 13.2 °C 1002.9 hPa West 27.4 km/h 49.9 km/h 91 % 0.25 mm 0 W/m2
03:30 14.6 °C 13.3 °C 1002.9 hPa West 29 km/h 49.9 km/h 92 % 0.25 mm 0 W/m2
03:35 14.7 °C 13.4 °C 1002.9 hPa West 29 km/h 62.8 km/h 92 % 0.25 mm 0 W/m2
03:40 14.7 °C 13.4 °C 1002.9 hPa West 29 km/h 62.8 km/h 92 % 0.25 mm 0 W/m2
03:45 14.8 °C 13.5 °C 1002.9 hPa West 27.4 km/h 49.9 km/h 92 % 0.25 mm 0 W/m2
03:50 14.9 °C 13.6 °C 1002.9 hPa West 30.6 km/h 51.5 km/h 92 % 0.25 mm 0 W/m2
03:56 15.1 °C 13.7 °C 1003.3 hPa West 35.4 km/h 54.7 km/h 91 % 0.25 mm 0 W/m2
04:01 15.2 °C 13.6 °C 1003.3 hPa West 35.4 km/h 59.5 km/h 90 % 0.25 mm 0 W/m2
04:06 15.3 °C 13.5 °C 1003.6 hPa West 35.4 km/h 61.2 km/h 89 % 0 mm 0 W/m2
04:11 15.3 °C 13.5 °C 1003.6 hPa WNW 35.4 km/h 69.2 km/h 89 % 0 mm 0 W/m2
04:16 15.3 °C 13.3 °C 1003.9 hPa WNW 33.8 km/h 69.2 km/h 88 % 0 mm 0 W/m2
04:21 15.3 °C 13.3 °C 1003.9 hPa WNW 33.8 km/h 61.2 km/h 88 % 0 mm 0 W/m2
04:23 15.3 °C 13.3 °C 1003.9 hPa WNW 33.8 km/h 61.2 km/h 88 % 0 mm 0 W/m2
04:27 15.3 °C 13.3 °C 1004.3 hPa WNW 32.2 km/h 61.2 km/h 88 % 0 mm 0 W/m2
04:34 15.1 °C 13.1 °C 1004.3 hPa WNW 30.6 km/h 48.3 km/h 88 % 0 mm 0 W/m2
04:39 14.9 °C 12.8 °C 1004.3 hPa WNW 29 km/h 51.5 km/h 87 % 0 mm 0 W/m2
04:44 14.8 °C 12.3 °C 1004.6 hPa WNW 27.4 km/h 66 km/h 85 % 0 mm 0 W/m2
04:45 14.7 °C 12.2 °C 1004.6 hPa WNW 29 km/h 66 km/h 85 % 0 mm 0 W/m2
04:50 14.5 °C 11.7 °C 1004.6 hPa WNW 29 km/h 66 km/h 83 % 0 mm 0 W/m2
04:55 14.3 °C 11.4 °C 1005 hPa WNW 29 km/h 49.9 km/h 83 % 0 mm 0 W/m2
05:00 14.1 °C 11.3 °C 1005 hPa WNW 27.4 km/h 49.9 km/h 83 % 0 mm 0 W/m2
05:05 13.8 °C 11.2 °C 1005.3 hPa WNW 27.4 km/h 46.7 km/h 84 % 0 mm 0 W/m2
05:10 13.6 °C 10.9 °C 1005.6 hPa WNW 24.1 km/h 46.7 km/h 84 % 0 mm 0 W/m2
05:15 13.4 °C 10.9 °C 1006 hPa WNW 20.9 km/h 48.3 km/h 85 % 0 mm 0 W/m2
05:20 13.2 °C 10.7 °C 1006.3 hPa WNW 24.1 km/h 48.3 km/h 85 % 0 mm 0 W/m2
05:30 13 °C 10.7 °C 1007 hPa NW 22.5 km/h 40.2 km/h 86 % 0 mm 0 W/m2
05:35 12.9 °C 10.6 °C 1007.3 hPa NW 19.3 km/h 37 km/h 86 % 0 mm 0 W/m2
05:40 12.5 °C 9.7 °C 1008 hPa NNW 19.3 km/h 33.8 km/h 83 % 0 mm 0 W/m2
05:45 11.6 °C 9 °C 1008.4 hPa North 20.9 km/h 33.8 km/h 84 % 0 mm 0 W/m2
05:50 11 °C 8.7 °C 1008.4 hPa North 19.3 km/h 35.4 km/h 86 % 0 mm 0 W/m2
05:55 10.7 °C 8.6 °C 1008.7 hPa NNW 17.7 km/h 35.4 km/h 87 % 0 mm 0 W/m2
06:00 10.6 °C 8.3 °C 1009 hPa NNW 14.5 km/h 30.6 km/h 86 % 0 mm 0 W/m2
06:05 10.5 °C 8.4 °C 1009.4 hPa NNW 11.3 km/h 25.7 km/h 87 % 0 mm 0 W/m2
06:10 10.4 °C 8.2 °C 1009.4 hPa NNW 14.5 km/h 37 km/h 86 % 0 mm 0 W/m2
06:15 10.4 °C 8.2 °C 1009.7 hPa NNW 16.1 km/h 37 km/h 86 % 0 mm 0 W/m2
06:20 10.3 °C 7.9 °C 1010 hPa NNW 14.5 km/h 37 km/h 85 % 0 mm 0 W/m2
06:25 10.3 °C 7.9 °C 1010 hPa NNW 12.9 km/h 33.8 km/h 85 % 0 mm 0 W/m2
06:30 10.3 °C 7.9 °C 1010.4 hPa NNW 11.3 km/h 33.8 km/h 85 % 0 mm 0 W/m2
06:35 10.2 °C 7.9 °C 1010.4 hPa NW 11.3 km/h 32.2 km/h 86 % 0 mm 0 W/m2
06:40 10.2 °C 7.9 °C 1010.7 hPa NW 12.9 km/h 32.2 km/h 86 % 0 mm 0 W/m2
06:45 10.2 °C 7.9 °C 1010.7 hPa NW 11.3 km/h 24.1 km/h 86 % 0 mm 0 W/m2
06:50 10.1 °C 7.7 °C 1011.1 hPa NW 14.5 km/h 29 km/h 85 % 0 mm 0 W/m2
06:55 9.9 °C 7.5 °C 1011.1 hPa NW 16.1 km/h 29 km/h 85 % 0 mm 0 W/m2
07:01 9.8 °C 7.4 °C 1011.4 hPa WNW 12.9 km/h 24.1 km/h 85 % 0 mm 0 W/m2
07:06 9.7 °C 7.1 °C 1011.7 hPa NW 11.3 km/h 24.1 km/h 84 % 0 mm 0 W/m2
07:11 9.6 °C 7 °C 1011.7 hPa NW 11.3 km/h 25.7 km/h 84 % 0 mm 0 W/m2
07:16 9.4 °C 6.8 °C 1012.1 hPa NW 12.9 km/h 25.7 km/h 84 % 0 mm 5 W/m2
07:21 9.3 °C 6.7 °C 1012.1 hPa NW 12.9 km/h 24.1 km/h 84 % 0 mm 7 W/m2
07:26 9.3 °C 6.7 °C 1012.4 hPa NW 12.9 km/h 20.9 km/h 84 % 0 mm 9 W/m2
07:31 9.2 °C 6.6 °C 1012.4 hPa NW 11.3 km/h 19.3 km/h 84 % 0 mm 11 W/m2
07:36 9.2 °C 6.8 °C 1012.4 hPa WNW 11.3 km/h 24.1 km/h 85 % 0 mm 14 W/m2
07:41 9.2 °C 6.8 °C 1012.8 hPa WNW 11.3 km/h 24.1 km/h 85 % 0 mm 16 W/m2
07:46 9.2 °C 6.8 °C 1012.8 hPa WNW 8 km/h 16.1 km/h 85 % 0 mm 23 W/m2
07:51 9.1 °C 6.7 °C 1012.8 hPa WNW 8 km/h 16.1 km/h 85 % 0 mm 58 W/m2
07:56 9.2 °C 6.8 °C 1012.8 hPa WNW 8 km/h 17.7 km/h 85 % 0 mm 67 W/m2
08:01 9.3 °C 6.9 °C 1012.8 hPa WNW 11.3 km/h 20.9 km/h 85 % 0 mm 86 W/m2
08:06 9.4 °C 6.8 °C 1012.8 hPa WNW 11.3 km/h 20.9 km/h 84 % 0 mm 91 W/m2
08:11 9.6 °C 6.8 °C 1013.1 hPa WNW 11.3 km/h 24.1 km/h 83 % 0 mm 114 W/m2
08:12 9.6 °C 6.8 °C 1013.1 hPa WNW 11.3 km/h 24.1 km/h 83 % 0 mm 116 W/m2
08:17 9.6 °C 6.8 °C 1013.1 hPa WNW 11.3 km/h 24.1 km/h 83 % 0 mm 130 W/m2
08:20 9.7 °C 6.9 °C 1013.1 hPa WNW 12.9 km/h 29 km/h 83 % 0 mm 135 W/m2
08:25 9.9 °C 6.9 °C 1013.1 hPa WNW 16.1 km/h 32.2 km/h 82 % 0 mm 149 W/m2
08:30 10.1 °C 7.2 °C 1013.1 hPa WNW 19.3 km/h 32.2 km/h 82 % 0 mm 162 W/m2
08:35 10.2 °C 7.3 °C 1013.4 hPa WNW 14.5 km/h 25.7 km/h 82 % 0 mm 172 W/m2
08:40 10.3 °C 7.2 °C 1013.4 hPa WNW 14.5 km/h 25.7 km/h 81 % 0 mm 185 W/m2
08:45 10.5 °C 7.4 °C 1013.4 hPa WNW 16.1 km/h 30.6 km/h 81 % 0 mm 199 W/m2
08:50 10.6 °C 7.3 °C 1013.4 hPa WNW 16.1 km/h 30.6 km/h 80 % 0 mm 200 W/m2
09:00 10.9 °C 7.6 °C 1013.8 hPa WNW 20.9 km/h 37 km/h 80 % 0 mm 237 W/m2
09:05 11 °C 7.7 °C 1013.8 hPa WNW 20.9 km/h 33.8 km/h 80 % 0 mm 250 W/m2
09:10 11.2 °C 7.9 °C 1013.8 hPa WNW 20.9 km/h 40.2 km/h 80 % 0 mm 260 W/m2
09:15 11.3 °C 7.8 °C 1014.1 hPa WNW 22.5 km/h 40.2 km/h 79 % 0 mm 274 W/m2
09:20 11.6 °C 8.1 °C 1014.1 hPa WNW 20.9 km/h 38.6 km/h 79 % 0 mm 285 W/m2
09:25 11.7 °C 8 °C 1014.1 hPa WNW 19.3 km/h 37 km/h 78 % 0 mm 299 W/m2
09:30 11.8 °C 8.1 °C 1014.4 hPa WNW 20.9 km/h 37 km/h 78 % 0 mm 311 W/m2
09:35 11.9 °C 8.2 °C 1014.4 hPa WNW 19.3 km/h 33.8 km/h 78 % 0 mm 322 W/m2
09:40 12.2 °C 8.3 °C 1014.4 hPa WNW 19.3 km/h 33.8 km/h 77 % 0 mm 336 W/m2
09:45 12.3 °C 8.4 °C 1014.4 hPa WNW 20.9 km/h 35.4 km/h 77 % 0 mm 348 W/m2
09:50 12.4 °C 8.3 °C 1014.4 hPa WNW 19.3 km/h 35.4 km/h 76 % 0 mm 359 W/m2
09:55 12.6 °C 8.3 °C 1014.8 hPa WNW 19.3 km/h 32.2 km/h 75 % 0 mm 371 W/m2
10:00 12.8 °C 8.5 °C 1014.8 hPa WNW 19.3 km/h 32.2 km/h 75 % 0 mm 380 W/m2
10:05 12.9 °C 8.2 °C 1015.1 hPa WNW 17.7 km/h 30.6 km/h 73 % 0 mm 394 W/m2
10:10 13.1 °C 8.4 °C 1015.1 hPa WNW 19.3 km/h 38.6 km/h 73 % 0 mm 406 W/m2
10:15 13.1 °C 8.4 °C 1015.1 hPa WNW 20.9 km/h 38.6 km/h 73 % 0 mm 441 W/m2
10:20 13.3 °C 8.6 °C 1015.5 hPa WNW 17.7 km/h 37 km/h 73 % 0 mm 466 W/m2
10:25 13.3 °C 8.3 °C 1015.5 hPa WNW 16.1 km/h 35.4 km/h 72 % 0 mm 102 W/m2
10:31 13.3 °C 8.2 °C 1015.5 hPa WNW 17.7 km/h 33.8 km/h 71 % 0 mm 471 W/m2
10:36 13.4 °C 8.2 °C 1015.5 hPa WNW 17.7 km/h 33.8 km/h 71 % 0 mm 471 W/m2
10:41 13.5 °C 8.3 °C 1015.5 hPa WNW 19.3 km/h 32.2 km/h 71 % 0 mm 462 W/m2
10:46 13.6 °C 8.4 °C 1015.5 hPa WNW 17.7 km/h 32.2 km/h 71 % 0 mm 450 W/m2
10:51 13.7 °C 8.3 °C 1015.5 hPa WNW 17.7 km/h 30.6 km/h 70 % 0 mm 441 W/m2
10:56 13.8 °C 8.6 °C 1015.5 hPa WNW 16.1 km/h 30.6 km/h 71 % 0 mm 512 W/m2
11:06 14.1 °C 8.9 °C 1015.8 hPa WNW 16.1 km/h 30.6 km/h 71 % 0 mm 552 W/m2
11:16 14.3 °C 8.3 °C 1015.8 hPa WNW 19.3 km/h 33.8 km/h 67 % 0 mm 545 W/m2
11:21 14.4 °C 8.1 °C 1015.8 hPa WNW 20.9 km/h 37 km/h 66 % 0 mm 534 W/m2
11:26 14.4 °C 8.3 °C 1015.8 hPa WNW 20.9 km/h 37 km/h 67 % 0 mm 559 W/m2
11:31 14.4 °C 7.9 °C 1015.8 hPa WNW 22.5 km/h 40.2 km/h 65 % 0 mm 547 W/m2
11:36 14.4 °C 7.9 °C 1015.8 hPa WNW 22.5 km/h 40.2 km/h 65 % 0 mm 548 W/m2
11:41 14.6 °C 8.1 °C 1015.8 hPa WNW 20.9 km/h 38.6 km/h 65 % 0 mm 548 W/m2
11:46 14.6 °C 7.9 °C 1015.8 hPa WNW 22.5 km/h 40.2 km/h 64 % 0 mm 557 W/m2
11:51 14.7 °C 7.9 °C 1015.8 hPa WNW 24.1 km/h 40.2 km/h 64 % 0 mm 559 W/m2
11:56 14.7 °C 7.7 °C 1016.1 hPa WNW 22.5 km/h 40.2 km/h 63 % 0 mm 561 W/m2
12:01 14.8 °C 7.6 °C 1016.1 hPa WNW 24.1 km/h 38.6 km/h 62 % 0 mm 570 W/m2
12:06 14.8 °C 7.6 °C 1016.1 hPa WNW 25.7 km/h 43.5 km/h 62 % 0 mm 573 W/m2
12:11 14.9 °C 7.7 °C 1016.1 hPa WNW 24.1 km/h 43.5 km/h 62 % 0 mm 585 W/m2
12:16 15 °C 7.8 °C 1016.1 hPa WNW 22.5 km/h 41.8 km/h 62 % 0 mm 594 W/m2
12:21 15.2 °C 8.2 °C 1016.1 hPa WNW 20.9 km/h 35.4 km/h 63 % 0 mm 564 W/m2
12:26 15.3 °C 8.1 °C 1016.1 hPa WNW 20.9 km/h 41.8 km/h 62 % 0 mm 601 W/m2
12:31 15.3 °C 8.1 °C 1016.5 hPa WNW 20.9 km/h 41.8 km/h 62 % 0 mm 606 W/m2
12:36 15.2 °C 7.9 °C 1016.5 hPa WNW 19.3 km/h 37 km/h 62 % 0 mm 174 W/m2
12:41 15.1 °C 8.1 °C 1016.1 hPa NW 19.3 km/h 41.8 km/h 63 % 0 mm 91 W/m2
12:46 14.9 °C 7.7 °C 1016.1 hPa NW 19.3 km/h 41.8 km/h 62 % 0 mm 132 W/m2
12:52 14.9 °C 7.9 °C 1016.5 hPa NW 17.7 km/h 37 km/h 63 % 0 mm 262 W/m2
12:57 14.8 °C 7.8 °C 1016.5 hPa NW 17.7 km/h 37 km/h 63 % 0 mm 686 W/m2
13:02 15.1 °C 8.1 °C 1016.5 hPa WNW 17.7 km/h 33.8 km/h 63 % 0 mm 156 W/m2
13:07 15.1 °C 8.3 °C 1016.5 hPa WNW 19.3 km/h 35.4 km/h 64 % 0 mm 684 W/m2
13:12 15.2 °C 7.9 °C 1016.8 hPa WNW 22.5 km/h 41.8 km/h 62 % 0 mm 346 W/m2
13:17 15.1 °C 7.6 °C 1016.8 hPa WNW 24.1 km/h 41.8 km/h 61 % 0 mm 628 W/m2
13:22 15.1 °C 7.9 °C 1016.8 hPa WNW 25.7 km/h 40.2 km/h 62 % 0 mm 645 W/m2
13:42 15.6 °C 7.8 °C 1016.8 hPa WNW 20.9 km/h 45.1 km/h 60 % 0 mm 664 W/m2
13:47 15.7 °C 7.9 °C 1016.5 hPa WNW 20.9 km/h 38.6 km/h 60 % 0 mm 638 W/m2
13:52 15.6 °C 7.1 °C 1016.8 hPa WNW 25.7 km/h 51.5 km/h 57 % 0 mm 619 W/m2
13:57 15.3 °C 7.1 °C 1016.8 hPa WNW 27.4 km/h 51.5 km/h 58 % 0 mm 585 W/m2
14:02 15.1 °C 7.4 °C 1016.8 hPa WNW 25.7 km/h 43.5 km/h 60 % 0 mm 577 W/m2
14:07 15.2 °C 7 °C 1016.8 hPa WNW 24.1 km/h 49.9 km/h 58 % 0 mm 545 W/m2
14:12 15.4 °C 7.7 °C 1016.8 hPa WNW 22.5 km/h 49.9 km/h 60 % 0 mm 541 W/m2
14:17 15.6 °C 8.1 °C 1016.5 hPa WNW 19.3 km/h 35.4 km/h 61 % 0 mm 608 W/m2
14:22 15.8 °C 8.3 °C 1016.8 hPa WNW 22.5 km/h 43.5 km/h 61 % 0 mm 629 W/m2
14:27 15.9 °C 8.2 °C 1016.8 hPa WNW 20.9 km/h 43.5 km/h 60 % 0 mm 116 W/m2
14:32 15.6 °C 7.6 °C 1016.8 hPa WNW 19.3 km/h 41.8 km/h 59 % 0 mm 116 W/m2
14:37 15.4 °C 7.4 °C 1016.8 hPa WNW 24.1 km/h 41.8 km/h 59 % 0 mm 547 W/m2
14:42 15.5 °C 8 °C 1016.8 hPa WNW 24.1 km/h 41.8 km/h 61 % 0 mm 508 W/m2
14:47 15.5 °C 8.2 °C 1017.2 hPa WNW 24.1 km/h 38.6 km/h 62 % 0 mm 513 W/m2
14:52 15.4 °C 8.2 °C 1017.2 hPa WNW 24.1 km/h 43.5 km/h 62 % 0 mm 476 W/m2
14:57 15.3 °C 8.5 °C 1017.2 hPa WNW 19.3 km/h 43.5 km/h 64 % 0 mm 473 W/m2
15:02 15.4 °C 8.2 °C 1017.5 hPa WNW 19.3 km/h 38.6 km/h 62 % 0 mm 487 W/m2
15:03 15.4 °C 8.4 °C 1017.5 hPa WNW 19.3 km/h 38.6 km/h 63 % 0 mm 487 W/m2
15:08 15.5 °C 8.7 °C 1017.5 hPa WNW 17.7 km/h 38.6 km/h 64 % 0 mm 455 W/m2
15:13 15.6 °C 8.8 °C 1017.5 hPa WNW 17.7 km/h 33.8 km/h 64 % 0 mm 434 W/m2
15:18 15.6 °C 8.6 °C 1017.2 hPa WNW 20.9 km/h 33.8 km/h 63 % 0 mm 425 W/m2
15:23 15.3 °C 8.5 °C 1017.2 hPa WNW 24.1 km/h 37 km/h 64 % 0 mm 418 W/m2
15:33 15 °C 8.7 °C 1017.2 hPa WNW 25.7 km/h 41.8 km/h 66 % 0 mm 392 W/m2
15:38 15.1 °C 8.3 °C 1017.2 hPa WNW 22.5 km/h 41.8 km/h 64 % 0 mm 388 W/m2
15:43 15 °C 7.8 °C 1017.2 hPa WNW 22.5 km/h 41.8 km/h 62 % 0 mm 376 W/m2
15:48 15 °C 7.6 °C 1017.2 hPa WNW 22.5 km/h 41.8 km/h 61 % 0 mm 367 W/m2
15:53 15.1 °C 7.4 °C 1017.5 hPa WNW 20.9 km/h 43.5 km/h 60 % 0 mm 355 W/m2
15:58 14.9 °C 7.7 °C 1017.5 hPa WNW 25.7 km/h 43.5 km/h 62 % 0 mm 339 W/m2
16:03 14.6 °C 7.9 °C 1017.5 hPa WNW 27.4 km/h 43.5 km/h 64 % 0 mm 325 W/m2
16:08 14.4 °C 8.3 °C 1017.5 hPa WNW 25.7 km/h 43.5 km/h 67 % 0 mm 311 W/m2
16:13 14.3 °C 8.3 °C 1017.5 hPa WNW 24.1 km/h 43.5 km/h 67 % 0 mm 299 W/m2
16:18 14.3 °C 8.4 °C 1017.5 hPa WNW 24.1 km/h 43.5 km/h 68 % 0 mm 295 W/m2
16:23 14.3 °C 8.7 °C 1017.5 hPa WNW 22.5 km/h 40.2 km/h 69 % 0 mm 283 W/m2
16:28 14.3 °C 8.4 °C 1017.8 hPa WNW 22.5 km/h 40.2 km/h 68 % 0 mm 269 W/m2
16:33 14.2 °C 8.6 °C 1017.8 hPa WNW 22.5 km/h 40.2 km/h 69 % 0 mm 255 W/m2
16:38 13.9 °C 8.1 °C 1017.8 hPa WNW 20.9 km/h 40.2 km/h 68 % 0 mm 239 W/m2
16:43 13.8 °C 8.4 °C 1017.8 hPa WNW 20.9 km/h 43.5 km/h 70 % 0 mm 227 W/m2
16:48 13.7 °C 8.1 °C 1017.8 hPa WNW 20.9 km/h 43.5 km/h 69 % 0 mm 213 W/m2
16:53 13.6 °C 8 °C 1017.8 hPa WNW 20.9 km/h 37 km/h 69 % 0 mm 197 W/m2
16:58 13.5 °C 8.1 °C 1017.8 hPa WNW 17.7 km/h 35.4 km/h 70 % 0 mm 183 W/m2
17:03 13.3 °C 8.2 °C 1017.8 hPa WNW 19.3 km/h 38.6 km/h 71 % 0 mm 174 W/m2
17:08 13.2 °C 8.3 °C 1017.8 hPa WNW 20.9 km/h 38.6 km/h 72 % 0 mm 158 W/m2
17:13 13.1 °C 8.4 °C 1017.8 hPa WNW 19.3 km/h 37 km/h 73 % 0 mm 142 W/m2
17:18 13.1 °C 8.4 °C 1018.2 hPa WNW 19.3 km/h 37 km/h 73 % 0 mm 128 W/m2
17:23 13 °C 8.4 °C 1018.2 hPa WNW 16.1 km/h 37 km/h 74 % 0 mm 42 W/m2
17:28 13 °C 8.4 °C 1018.2 hPa WNW 14.5 km/h 30.6 km/h 74 % 0 mm 33 W/m2
17:33 12.9 °C 8.4 °C 1018.2 hPa WNW 16.1 km/h 35.4 km/h 74 % 0 mm 35 W/m2
17:38 12.8 °C 8.3 °C 1018.2 hPa WNW 17.7 km/h 35.4 km/h 74 % 0 mm 23 W/m2
17:43 12.7 °C 8.2 °C 1018.2 hPa WNW 19.3 km/h 33.8 km/h 74 % 0 mm 25 W/m2
17:48 12.5 °C 8.2 °C 1018.2 hPa WNW 20.9 km/h 38.6 km/h 75 % 0 mm 23 W/m2
17:53 12.4 °C 8.3 °C 1018.2 hPa WNW 19.3 km/h 38.6 km/h 76 % 0 mm 18 W/m2
17:58 12.3 °C 8.4 °C 1018.2 hPa WNW 17.7 km/h 29 km/h 77 % 0 mm 16 W/m2
18:03 12.2 °C 8.3 °C 1018.2 hPa WNW 17.7 km/h 29 km/h 77 % 0 mm 14 W/m2
18:08 12.1 °C 8 °C 1018.5 hPa WNW 19.3 km/h 37 km/h 76 % 0 mm 12 W/m2
18:13 12 °C 7.9 °C 1018.5 hPa WNW 22.5 km/h 38.6 km/h 76 % 0 mm 11 W/m2
18:23 11.9 °C 7.8 °C 1018.5 hPa WNW 22.5 km/h 43.5 km/h 76 % 0 mm 9 W/m2
18:29 11.9 °C 7.8 °C 1018.8 hPa WNW 20.9 km/h 41.8 km/h 76 % 0 mm 7 W/m2
18:34 11.8 °C 7.9 °C 1018.8 hPa WNW 17.7 km/h 35.4 km/h 77 % 0 mm 5 W/m2
18:39 11.7 °C 7.8 °C 1018.8 hPa WNW 17.7 km/h 33.8 km/h 77 % 0 mm 5 W/m2
18:44 11.6 °C 7.7 °C 1018.8 hPa WNW 17.7 km/h 33.8 km/h 77 % 0 mm 0 W/m2
18:49 11.6 °C 7.7 °C 1018.8 hPa WNW 17.7 km/h 35.4 km/h 77 % 0 mm 0 W/m2
18:54 11.5 °C 7.8 °C 1018.8 hPa WNW 17.7 km/h 35.4 km/h 78 % 0 mm 0 W/m2
18:59 11.4 °C 7.7 °C 1018.8 hPa WNW 16.1 km/h 32.2 km/h 78 % 0 mm 0 W/m2
19:04 11.3 °C 7.8 °C 1018.8 hPa WNW 16.1 km/h 32.2 km/h 79 % 0 mm 0 W/m2
19:09 11.3 °C 7.8 °C 1018.8 hPa WNW 16.1 km/h 33.8 km/h 79 % 0 mm 0 W/m2
19:14 11.2 °C 7.9 °C 1019.2 hPa WNW 17.7 km/h 38.6 km/h 80 % 0 mm 0 W/m2
19:24 11.2 °C 8.1 °C 1019.2 hPa WNW 16.1 km/h 30.6 km/h 81 % 0 mm 0 W/m2
19:29 11.1 °C 7.9 °C 1019.2 hPa WNW 16.1 km/h 25.7 km/h 81 % 0 mm 0 W/m2
19:34 11.1 °C 7.9 °C 1019.5 hPa WNW 14.5 km/h 25.7 km/h 81 % 0 mm 0 W/m2
19:39 11 °C 8.1 °C 1019.5 hPa NW 12.9 km/h 25.7 km/h 82 % 0 mm 0 W/m2
19:44 10.9 °C 7.9 °C 1019.5 hPa WNW 12.9 km/h 25.7 km/h 82 % 0 mm 0 W/m2
19:49 10.9 °C 8.1 °C 1019.9 hPa WNW 12.9 km/h 24.1 km/h 83 % 0 mm 0 W/m2
19:54 10.9 °C 8.1 °C 1019.9 hPa WNW 14.5 km/h 25.7 km/h 83 % 0 mm 0 W/m2
19:59 10.9 °C 8.1 °C 1019.9 hPa WNW 12.9 km/h 25.7 km/h 83 % 0 mm 0 W/m2
20:04 10.8 °C 8.2 °C 1019.9 hPa WNW 12.9 km/h 24.1 km/h 84 % 0 mm 0 W/m2
20:09 10.8 °C 8.2 °C 1019.9 hPa WNW 11.3 km/h 24.1 km/h 84 % 0 mm 0 W/m2
20:19 10.7 °C 8.1 °C 1019.9 hPa WNW 11.3 km/h 29 km/h 84 % 0 mm 0 W/m2
20:24 10.7 °C 8.3 °C 1019.9 hPa WNW 12.9 km/h 32.2 km/h 85 % 0 mm 0 W/m2
20:29 10.7 °C 8.3 °C 1019.9 hPa WNW 14.5 km/h 32.2 km/h 85 % 0 mm 0 W/m2
20:39 10.6 °C 8 °C 1020.2 hPa WNW 12.9 km/h 25.7 km/h 84 % 0 mm 0 W/m2
20:44 10.6 °C 8 °C 1020.2 hPa WNW 14.5 km/h 30.6 km/h 84 % 0 mm 0 W/m2
20:49 10.6 °C 8 °C 1020.2 hPa WNW 17.7 km/h 30.6 km/h 84 % 0 mm 0 W/m2
20:54 10.6 °C 8 °C 1020.2 hPa WNW 16.1 km/h 25.7 km/h 84 % 0 mm 0 W/m2
20:59 10.6 °C 8 °C 1020.5 hPa WNW 14.5 km/h 25.7 km/h 84 % 0 mm 0 W/m2
21:04 10.6 °C 8 °C 1020.5 hPa WNW 14.5 km/h 24.1 km/h 84 % 0 mm 0 W/m2
21:09 10.6 °C 8.2 °C 1020.5 hPa WNW 14.5 km/h 24.1 km/h 85 % 0 mm 0 W/m2
21:14 10.5 °C 8.1 °C 1020.5 hPa WNW 12.9 km/h 24.1 km/h 85 % 0 mm 0 W/m2
21:19 10.4 °C 8 °C 1020.5 hPa WNW 12.9 km/h 19.3 km/h 85 % 0 mm 0 W/m2
21:24 10.4 °C 8 °C 1020.5 hPa WNW 12.9 km/h 24.1 km/h 85 % 0 mm 0 W/m2
21:29 10.3 °C 7.9 °C 1020.5 hPa WNW 12.9 km/h 24.1 km/h 85 % 0 mm 0 W/m2
21:34 10.3 °C 7.9 °C 1020.5 hPa WNW 12.9 km/h 20.9 km/h 85 % 0 mm 0 W/m2
21:39 10.2 °C 7.8 °C 1020.5 hPa WNW 12.9 km/h 24.1 km/h 85 % 0 mm 0 W/m2
21:44 10.2 °C 7.8 °C 1020.5 hPa WNW 14.5 km/h 24.1 km/h 85 % 0 mm 0 W/m2
21:49 10.1 °C 7.7 °C 1020.5 hPa WNW 14.5 km/h 22.5 km/h 85 % 0 mm 0 W/m2
21:54 10.1 °C 7.7 °C 1020.5 hPa WNW 14.5 km/h 22.5 km/h 85 % 0 mm 0 W/m2
21:59 10 °C 7.6 °C 1020.5 hPa WNW 14.5 km/h 24.1 km/h 85 % 0 mm 0 W/m2
22:04 9.9 °C 7.5 °C 1020.5 hPa WNW 14.5 km/h 24.1 km/h 85 % 0 mm 0 W/m2
22:09 9.9 °C 7.5 °C 1020.9 hPa WNW 12.9 km/h 22.5 km/h 85 % 0 mm 0 W/m2
22:14 9.9 °C 7.5 °C 1020.9 hPa WNW 12.9 km/h 20.9 km/h 85 % 0 mm 0 W/m2
22:19 9.8 °C 7.4 °C 1020.9 hPa WNW 12.9 km/h 20.9 km/h 85 % 0 mm 0 W/m2
22:24 9.8 °C 7.4 °C 1020.9 hPa WNW 12.9 km/h 20.9 km/h 85 % 0 mm 0 W/m2
22:30 9.7 °C 7.3 °C 1020.9 hPa WNW 12.9 km/h 20.9 km/h 85 % 0 mm 0 W/m2
22:34 9.7 °C 7.3 °C 1020.9 hPa WNW 12.9 km/h 19.3 km/h 85 % 0 mm 0 W/m2
22:39 9.7 °C 7.3 °C 1020.9 hPa WNW 11.3 km/h 19.3 km/h 85 % 0 mm 0 W/m2
22:45 9.6 °C 7.2 °C 1020.9 hPa WNW 11.3 km/h 20.9 km/h 85 % 0 mm 0 W/m2
22:50 9.6 °C 7.2 °C 1021.2 hPa WNW 12.9 km/h 22.5 km/h 85 % 0 mm 0 W/m2
22:55 9.6 °C 7.2 °C 1021.2 hPa WNW 12.9 km/h 22.5 km/h 85 % 0 mm 0 W/m2
23:00 9.6 °C 7.2 °C 1021.2 hPa WNW 14.5 km/h 25.7 km/h 85 % 0 mm 0 W/m2
23:10 9.6 °C 7.2 °C 1021.2 hPa WNW 16.1 km/h 32.2 km/h 85 % 0 mm 0 W/m2
23:15 9.7 °C 7.3 °C 1021.2 hPa WNW 17.7 km/h 32.2 km/h 85 % 0 mm 0 W/m2
23:20 9.7 °C 7.3 °C 1021.2 hPa WNW 16.1 km/h 29 km/h 85 % 0 mm 0 W/m2
23:25 9.6 °C 7.2 °C 1021.6 hPa WNW 12.9 km/h 24.1 km/h 85 % 0 mm 0 W/m2
23:30 9.6 °C 7.2 °C 1021.6 hPa WNW 14.5 km/h 25.7 km/h 85 % 0 mm 0 W/m2
23:35 9.6 °C 7.2 °C 1021.6 hPa WNW 16.1 km/h 25.7 km/h 85 % 0 mm 0 W/m2
23:40 9.6 °C 7.2 °C 1021.6 hPa WNW 14.5 km/h 25.7 km/h 85 % 0 mm 0 W/m2
23:45 9.5 °C 7.1 °C 1021.6 hPa WNW 14.5 km/h 25.7 km/h 85 % 0 mm 0 W/m2
23:50 9.5 °C 7.1 °C 1021.6 hPa WNW 12.9 km/h 20.9 km/h 85 % 0 mm 0 W/m2
23:55 9.4 °C 7 °C 1021.6 hPa WNW 11.3 km/h 20.9 km/h 85 % 0 mm 0 W/m2
Delerius-Weather
Compliments of Weather Underground - 2.25 mb

Data updates at regular intervals.